createdAt,value
2022-10-02T00:06:20.884Z,10.20
2022-10-02T00:08:17.405Z,10.24
2022-10-02T00:09:31.637Z,10.26
2022-10-02T00:13:27.610Z,10.29
2022-10-02T00:14:55.544Z,10.29
2022-10-02T00:18:45.358Z,10.30
2022-10-02T00:21:12.052Z,10.27
2022-10-02T00:28:17.321Z,10.27
2022-10-02T00:30:03.260Z,10.28
2022-10-02T00:31:34.063Z,10.32
2022-10-02T00:38:14.659Z,10.30
2022-10-02T00:53:45.371Z,10.28
2022-10-02T00:58:05.228Z,10.30
2022-10-02T00:59:28.000Z,10.31
2022-10-02T01:00:49.520Z,10.32
2022-10-02T01:02:25.763Z,10.34
2022-10-02T01:09:13.949Z,10.36
2022-10-02T01:10:23.859Z,10.39
2022-10-02T01:11:32.033Z,10.42
2022-10-02T01:12:42.167Z,10.45
2022-10-02T01:14:30.159Z,10.49
2022-10-02T01:16:01.926Z,10.50
2022-10-02T01:17:41.460Z,10.54
2022-10-02T01:19:16.701Z,10.56
2022-10-02T01:23:43.894Z,10.55
2022-10-02T01:27:49.808Z,10.53
2022-10-02T01:29:05.320Z,10.53
2022-10-02T01:30:21.176Z,10.55
2022-10-02T01:31:28.901Z,10.55
2022-10-02T01:32:34.396Z,10.56
2022-10-02T01:34:01.176Z,10.56
2022-10-02T01:39:29.881Z,10.58
2022-10-02T01:40:51.860Z,10.62
2022-10-02T01:42:51.261Z,10.62
2022-10-02T01:43:58.594Z,10.64
2022-10-02T01:45:17.393Z,10.65
2022-10-02T01:51:07.997Z,10.62
2022-10-02T01:56:46.729Z,10.54
2022-10-02T02:21:25.318Z,10.71
2022-10-02T02:22:59.258Z,10.71
2022-10-02T02:24:52.866Z,10.68
2022-10-02T02:26:29.056Z,10.66
2022-10-02T02:27:51.956Z,10.64
2022-10-02T02:29:35.801Z,10.60
2022-10-02T02:31:22.923Z,10.56
2022-10-02T02:32:39.813Z,10.50
2022-10-02T02:34:13.836Z,10.48
2022-10-02T02:35:43.696Z,10.46
2022-10-02T02:36:52.981Z,10.45
2022-10-02T02:38:35.215Z,10.47
2022-10-02T02:39:46.746Z,10.49
2022-10-02T02:41:20.269Z,10.53
2022-10-02T02:42:41.318Z,10.56
2022-10-02T02:47:10.058Z,10.63
2022-10-02T02:48:48.186Z,10.65
2022-10-02T02:50:47.937Z,10.69
2022-10-02T02:52:02.538Z,10.70
2022-10-02T02:54:00.715Z,10.69
2022-10-02T02:55:45.050Z,10.69
2022-10-02T02:57:01.741Z,10.65
2022-10-02T02:58:12.352Z,10.63
2022-10-02T02:59:22.755Z,10.60
2022-10-02T03:00:58.769Z,10.55
2022-10-02T03:02:16.035Z,10.51
2022-10-02T03:03:24.558Z,10.49
2022-10-02T03:04:34.946Z,10.46
2022-10-02T03:05:47.636Z,10.45
2022-10-02T03:07:06.531Z,10.41
2022-10-02T03:11:11.101Z,10.31
2022-10-02T03:13:15.127Z,10.27
2022-10-02T03:15:22.953Z,10.27
2022-10-02T03:16:41.541Z,10.30
2022-10-02T03:18:04.829Z,10.34
2022-10-02T03:19:31.498Z,10.37
2022-10-02T03:21:08.728Z,10.41
2022-10-02T03:22:55.086Z,10.46
2022-10-02T03:24:07.416Z,10.49
2022-10-02T03:25:50.355Z,10.52
2022-10-02T03:27:10.067Z,10.54
2022-10-02T03:28:37.362Z,10.56
2022-10-02T03:29:55.122Z,10.57
2022-10-02T03:34:27.044Z,10.62
2022-10-02T03:35:31.503Z,10.64
2022-10-02T03:36:46.510Z,10.68
2022-10-02T03:37:57.955Z,10.71
2022-10-02T03:39:24.812Z,10.73
2022-10-02T03:42:12.057Z,10.79
2022-10-02T03:43:24.005Z,10.82
2022-10-02T03:44:48.019Z,10.84
2022-10-02T03:45:55.519Z,10.84
2022-10-02T03:47:51.089Z,10.87
2022-10-02T03:50:39.125Z,10.90
2022-10-02T03:51:43.893Z,10.90
2022-10-02T03:53:00.541Z,10.94
2022-10-02T03:54:19.624Z,10.94
2022-10-02T03:55:43.841Z,10.97
2022-10-02T03:57:09.151Z,10.97
2022-10-02T03:58:18.634Z,11.01
2022-10-02T03:59:39.197Z,11.02
2022-10-02T04:00:59.740Z,11.03
2022-10-02T04:02:23.073Z,11.03
2022-10-02T04:03:37.507Z,11.03
2022-10-02T04:04:49.668Z,11.05
2022-10-02T04:06:01.836Z,11.07
2022-10-02T04:07:40.202Z,11.06
2022-10-02T04:08:49.955Z,11.08
2022-10-02T04:10:01.188Z,11.09
2022-10-02T04:11:33.472Z,11.10
2022-10-02T04:13:10.836Z,11.11
2022-10-02T04:14:49.985Z,11.10
2022-10-02T04:16:09.165Z,11.11
2022-10-02T04:17:48.046Z,11.12
2022-10-02T04:19:21.869Z,11.12
2022-10-02T04:20:32.946Z,11.11
2022-10-02T04:21:45.549Z,11.12
2022-10-02T04:22:54.101Z,11.14
2022-10-02T04:24:04.440Z,11.14
2022-10-02T04:25:20.248Z,11.15
2022-10-02T04:26:27.226Z,11.16
2022-10-02T04:27:46.333Z,11.17
2022-10-02T04:28:53.379Z,11.17
2022-10-02T04:30:10.551Z,11.18
2022-10-02T04:31:20.609Z,11.19
2022-10-02T04:32:26.878Z,11.20
2022-10-02T04:33:38.361Z,11.21
2022-10-02T04:34:42.373Z,11.23
2022-10-02T04:36:17.016Z,11.23
2022-10-02T04:37:41.501Z,11.23
2022-10-02T04:38:56.707Z,11.24
2022-10-02T04:40:15.317Z,11.26
2022-10-02T04:41:32.059Z,11.26
2022-10-02T04:42:46.018Z,11.27
2022-10-02T04:43:59.964Z,11.28
2022-10-02T04:45:18.568Z,11.29
2022-10-02T04:46:33.936Z,11.29
2022-10-02T04:48:19.189Z,11.30
2022-10-02T04:49:34.511Z,11.28
2022-10-02T04:50:48.110Z,11.28
2022-10-02T04:52:17.621Z,11.27
2022-10-02T04:53:42.894Z,11.25
2022-10-02T04:55:07.530Z,11.24
2022-10-02T04:56:22.448Z,11.23
2022-10-02T04:57:41.817Z,11.22
2022-10-02T04:59:05.939Z,11.21
2022-10-02T05:00:11.707Z,11.21
2022-10-02T05:01:23.242Z,11.20
2022-10-02T05:02:37.799Z,11.24
2022-10-02T05:03:53.146Z,11.25
2022-10-02T05:05:16.659Z,11.27
2022-10-02T05:06:43.961Z,11.26
2022-10-02T05:08:03.030Z,11.27
2022-10-02T05:09:15.758Z,11.26
2022-10-02T05:10:34.182Z,11.27
2022-10-02T05:12:08.387Z,11.26
2022-10-02T05:13:24.107Z,11.25
2022-10-02T05:14:40.589Z,11.23
2022-10-02T05:16:10.907Z,11.21
2022-10-02T05:17:33.146Z,11.18
2022-10-02T05:18:56.898Z,11.17
2022-10-02T05:20:12.131Z,11.15
2022-10-02T05:21:42.269Z,11.15
2022-10-02T05:23:02.693Z,11.14
2022-10-02T05:24:18.324Z,11.13
2022-10-02T05:25:33.269Z,11.13
2022-10-02T05:27:00.235Z,11.12
2022-10-02T05:28:16.001Z,11.11
2022-10-02T05:29:34.118Z,11.13
2022-10-02T05:30:45.133Z,11.15
2022-10-02T05:32:00.469Z,11.15
2022-10-02T05:33:18.930Z,11.15
2022-10-02T05:34:40.835Z,11.15
2022-10-02T05:36:04.117Z,11.14
2022-10-02T05:37:19.469Z,11.14
2022-10-02T05:38:43.681Z,11.12
2022-10-02T05:39:56.912Z,11.13
2022-10-02T05:41:04.106Z,11.15
2022-10-02T05:42:18.687Z,11.16
2022-10-02T05:43:33.362Z,11.18
2022-10-02T05:44:39.088Z,11.19
2022-10-02T05:45:48.925Z,11.21
2022-10-02T05:46:54.636Z,11.21
2022-10-02T05:48:06.804Z,11.25
2022-10-02T05:49:15.773Z,11.26
2022-10-02T05:50:22.798Z,11.28
2022-10-02T05:51:36.911Z,11.30
2022-10-02T05:52:45.625Z,11.31
2022-10-02T05:53:53.322Z,11.33
2022-10-02T05:55:04.229Z,11.36
2022-10-02T05:56:12.729Z,11.39
2022-10-02T05:57:22.981Z,11.41
2022-10-02T05:58:30.415Z,11.44
2022-10-02T05:59:41.298Z,11.48
2022-10-02T06:00:47.870Z,11.50
2022-10-02T06:01:54.528Z,11.53
2022-10-02T06:03:09.497Z,11.58
2022-10-02T06:04:19.257Z,11.61
2022-10-02T06:05:26.511Z,11.62
2022-10-02T06:06:36.662Z,11.64
2022-10-02T06:07:42.609Z,11.67
2022-10-02T06:08:49.952Z,11.67
2022-10-02T06:09:58.274Z,11.68
2022-10-02T06:11:08.757Z,11.68
2022-10-02T06:12:14.590Z,11.68
2022-10-02T06:13:23.866Z,11.68
2022-10-02T06:14:32.422Z,11.67
2022-10-02T06:15:40.528Z,11.69
2022-10-02T06:16:49.222Z,11.69
2022-10-02T06:17:56.507Z,11.69
2022-10-02T06:19:09.869Z,11.71
2022-10-02T06:20:20.149Z,11.71
2022-10-02T06:21:35.852Z,11.73
2022-10-02T06:22:48.895Z,11.77
2022-10-02T06:23:55.334Z,11.78
2022-10-02T06:25:02.429Z,11.80
2022-10-02T06:26:13.128Z,11.82
2022-10-02T06:27:21.503Z,11.85
2022-10-02T06:28:29.654Z,11.87
2022-10-02T06:29:42.553Z,11.92
2022-10-02T06:30:51.368Z,11.96
2022-10-02T06:32:04.586Z,12.00
2022-10-02T06:33:14.503Z,12.02
2022-10-02T06:34:18.070Z,12.05
2022-10-02T06:35:33.225Z,12.06
2022-10-02T06:36:48.788Z,12.06
2022-10-02T06:38:12.123Z,12.04
2022-10-02T06:39:32.056Z,12.04
2022-10-02T06:40:58.878Z,12.03
2022-10-02T06:42:12.300Z,12.05
2022-10-02T06:43:43.611Z,12.09
2022-10-02T06:45:01.139Z,12.11
2022-10-02T06:46:16.416Z,12.13
2022-10-02T06:47:28.318Z,12.12
2022-10-02T06:48:41.268Z,12.12
2022-10-02T06:49:57.058Z,12.13
2022-10-02T06:51:07.725Z,12.15
2022-10-02T06:52:19.848Z,12.18
2022-10-02T06:53:40.367Z,12.23
2022-10-02T06:54:54.486Z,12.30
2022-10-02T06:56:03.791Z,12.35
2022-10-02T06:57:34.169Z,12.42
2022-10-02T06:58:48.911Z,12.45
2022-10-02T07:00:16.185Z,12.49
2022-10-02T07:01:26.078Z,12.52
2022-10-02T07:02:43.590Z,12.56
2022-10-02T07:04:07.267Z,12.61
2022-10-02T07:05:53.553Z,12.68
2022-10-02T07:07:11.592Z,12.78
2022-10-02T07:08:22.881Z,12.89
2022-10-02T07:10:02.429Z,12.98
2022-10-02T07:11:16.019Z,13.02
2022-10-02T07:12:31.534Z,13.06
2022-10-02T07:13:58.068Z,13.10
2022-10-02T07:16:16.951Z,13.27
2022-10-02T07:17:39.485Z,13.48
2022-10-02T07:18:56.126Z,13.51
2022-10-02T07:20:26.712Z,13.62
2022-10-02T07:21:39.395Z,13.86
2022-10-02T07:22:58.505Z,14.07
2022-10-02T07:24:11.460Z,14.20
2022-10-02T07:25:39.963Z,14.31
2022-10-02T07:26:49.349Z,14.32
2022-10-02T07:27:58.800Z,14.29
2022-10-02T07:29:14.648Z,14.31
2022-10-02T07:30:18.675Z,14.39
2022-10-02T07:31:46.381Z,14.41
2022-10-02T07:32:53.866Z,14.39
2022-10-02T07:34:08.024Z,14.42
2022-10-02T07:35:28.151Z,14.53
2022-10-02T07:36:40.270Z,14.58
2022-10-02T07:37:47.705Z,14.61
2022-10-02T07:39:04.788Z,14.64
2022-10-02T07:40:20.531Z,14.65
2022-10-02T07:41:36.513Z,14.63
2022-10-02T07:42:57.034Z,14.64
2022-10-02T07:44:05.153Z,14.68
2022-10-02T07:45:30.193Z,14.72
2022-10-02T07:46:41.194Z,14.64
2022-10-02T07:47:54.493Z,14.57
2022-10-02T07:49:08.509Z,14.48
2022-10-02T07:50:25.698Z,14.44
2022-10-02T07:51:48.200Z,14.44
2022-10-02T07:52:55.966Z,14.43
2022-10-02T07:54:08.116Z,14.43
2022-10-02T07:55:17.899Z,14.41
2022-10-02T07:56:25.510Z,14.39
2022-10-02T07:57:36.361Z,14.39
2022-10-02T07:58:45.438Z,14.35
2022-10-02T07:59:50.208Z,14.31
2022-10-02T08:01:01.444Z,14.28
2022-10-02T08:02:09.817Z,14.28
2022-10-02T08:03:17.545Z,14.30
2022-10-02T08:04:34.612Z,14.31
2022-10-02T08:05:44.879Z,14.30
2022-10-02T08:06:49.017Z,14.28
2022-10-02T08:07:56.377Z,14.26
2022-10-02T08:09:03.051Z,14.26
2022-10-02T08:10:10.262Z,14.26
2022-10-02T08:11:18.087Z,14.26
2022-10-02T08:12:29.085Z,14.24
2022-10-02T08:13:35.589Z,14.20
2022-10-02T08:14:42.247Z,14.18
2022-10-02T08:15:53.544Z,14.18
2022-10-02T08:16:59.527Z,14.20
2022-10-02T08:18:30.450Z,14.27
2022-10-02T08:19:39.668Z,14.36
2022-10-02T08:20:44.176Z,14.40
2022-10-02T08:21:55.929Z,14.40
2022-10-02T08:23:05.487Z,14.44
2022-10-02T08:24:14.888Z,14.52
2022-10-02T08:25:21.588Z,14.61
2022-10-02T08:26:35.387Z,14.76
2022-10-02T08:27:49.578Z,14.93
2022-10-02T08:28:58.279Z,15.05
2022-10-02T08:30:07.919Z,15.10
2022-10-02T08:31:13.719Z,15.17
2022-10-02T08:32:19.706Z,15.24
2022-10-02T08:33:24.580Z,15.31
2022-10-02T08:34:31.158Z,15.32
2022-10-02T08:35:40.739Z,15.33
2022-10-02T08:37:13.467Z,15.36
2022-10-02T08:38:31.947Z,15.34
2022-10-02T08:39:58.122Z,15.31
2022-10-02T08:41:46.552Z,15.31
2022-10-02T08:43:24.503Z,15.30
2022-10-02T08:45:02.698Z,15.26
2022-10-02T08:46:40.909Z,15.27
2022-10-02T08:48:11.360Z,15.42
2022-10-02T08:49:50.218Z,15.57
2022-10-02T08:51:27.814Z,15.72
2022-10-02T08:53:00.361Z,15.69
2022-10-02T08:54:29.297Z,15.60
2022-10-02T08:55:55.637Z,15.48
2022-10-02T08:57:16.348Z,15.38
2022-10-02T08:58:41.026Z,15.26
2022-10-02T09:00:02.568Z,15.18
2022-10-02T09:01:24.753Z,15.15
2022-10-02T09:03:06.729Z,15.14
2022-10-02T09:04:45.758Z,15.05
2022-10-02T09:06:41.368Z,15.04
2022-10-02T09:08:14.174Z,14.98
2022-10-02T09:10:06.007Z,14.96
2022-10-02T09:11:37.478Z,14.91
2022-10-02T09:13:14.969Z,14.94
2022-10-02T09:14:43.901Z,14.99
2022-10-02T09:15:49.055Z,15.03
2022-10-02T09:17:12.057Z,15.12
2022-10-02T09:18:25.397Z,15.21
2022-10-02T09:19:41.958Z,15.25
2022-10-02T09:21:11.408Z,15.24
2022-10-02T09:22:30.158Z,15.22
2022-10-02T09:24:09.675Z,15.25
2022-10-02T09:25:29.959Z,15.31
2022-10-02T09:26:43.215Z,15.36
2022-10-02T09:28:22.753Z,15.43
2022-10-02T09:29:42.429Z,15.44
2022-10-02T09:31:09.066Z,15.44
2022-10-02T09:33:04.508Z,15.60
2022-10-02T09:34:53.883Z,15.81
2022-10-02T09:36:35.543Z,15.96
2022-10-02T09:38:11.322Z,16.05
2022-10-02T09:39:52.019Z,16.08
2022-10-02T09:41:46.709Z,16.17
2022-10-02T09:43:38.626Z,16.32
2022-10-02T09:45:10.188Z,16.45
2022-10-02T09:46:51.356Z,16.57
2022-10-02T09:48:22.142Z,16.61
2022-10-02T09:50:16.182Z,16.71
2022-10-02T09:52:11.550Z,16.88
2022-10-02T09:53:54.546Z,16.95
2022-10-02T09:55:35.553Z,16.91
2022-10-02T09:57:18.196Z,16.86
2022-10-02T09:58:59.376Z,16.86
2022-10-02T10:00:14.938Z,16.90
2022-10-02T10:01:35.185Z,16.96
2022-10-02T10:03:22.950Z,16.96
2022-10-02T10:05:05.139Z,16.90
2022-10-02T10:06:48.109Z,16.92
2022-10-02T10:08:30.362Z,17.03
2022-10-02T10:10:10.398Z,17.02
2022-10-02T10:11:36.102Z,16.97
2022-10-02T10:13:03.946Z,17.00
2022-10-02T10:14:31.924Z,17.19
2022-10-02T10:16:30.952Z,17.47
2022-10-02T10:18:10.057Z,17.60
2022-10-02T10:19:48.518Z,17.60
2022-10-02T10:21:08.664Z,17.62
2022-10-02T10:22:49.949Z,17.66
2022-10-02T10:24:26.549Z,17.61
2022-10-02T10:25:52.087Z,17.47
2022-10-02T10:27:17.288Z,17.32
2022-10-02T10:28:55.557Z,17.17
2022-10-02T10:30:15.563Z,17.00
2022-10-02T10:32:01.759Z,16.87
2022-10-02T10:33:41.527Z,16.81
2022-10-02T10:35:29.857Z,16.84
2022-10-02T10:37:23.009Z,16.80
2022-10-02T10:38:42.126Z,16.80
2022-10-02T10:40:16.728Z,16.77
2022-10-02T10:42:04.145Z,16.78
2022-10-02T10:43:53.026Z,16.96
2022-10-02T10:45:26.583Z,17.19
2022-10-02T10:46:59.289Z,17.49
2022-10-02T10:48:30.395Z,17.67
2022-10-02T10:50:02.673Z,17.79
2022-10-02T10:51:26.058Z,17.88
2022-10-02T10:52:52.573Z,17.92
2022-10-02T10:54:30.099Z,18.00
2022-10-02T10:56:19.561Z,18.06
2022-10-02T10:57:35.187Z,18.07
2022-10-02T10:58:51.777Z,18.01
2022-10-02T11:00:15.296Z,17.90
2022-10-02T11:01:20.899Z,17.84
2022-10-02T11:02:53.456Z,17.86
2022-10-02T11:04:27.228Z,17.80
2022-10-02T11:06:03.956Z,17.66
2022-10-02T11:07:27.959Z,17.52
2022-10-02T11:09:06.993Z,17.47
2022-10-02T11:10:48.298Z,17.37
2022-10-02T11:12:09.583Z,17.29
2022-10-02T11:15:02.288Z,17.47
2022-10-02T11:16:33.137Z,17.57
2022-10-02T11:18:10.647Z,17.76
2022-10-02T11:19:37.235Z,17.98
2022-10-02T11:21:04.087Z,18.14
2022-10-02T11:22:55.558Z,18.25
2022-10-02T11:24:27.438Z,18.29
2022-10-02T11:25:41.044Z,18.29
2022-10-02T11:27:03.847Z,18.26
2022-10-02T11:28:43.603Z,18.17
2022-10-02T11:30:10.654Z,18.01
2022-10-02T11:31:31.987Z,17.79
2022-10-02T11:32:51.499Z,17.48
2022-10-02T11:34:08.396Z,17.19
2022-10-02T11:35:32.183Z,16.91
2022-10-02T11:36:55.746Z,16.71
2022-10-02T11:38:16.519Z,16.58
2022-10-02T11:39:53.449Z,16.42
2022-10-02T11:41:21.287Z,16.29
2022-10-02T11:42:43.396Z,16.32
2022-10-02T11:44:03.367Z,16.53
2022-10-02T11:45:29.365Z,16.75
2022-10-02T11:46:58.392Z,16.94
2022-10-02T11:48:19.169Z,17.12
2022-10-02T11:49:59.442Z,17.25
2022-10-02T11:51:13.827Z,17.41
2022-10-02T11:53:11.955Z,17.64
2022-10-02T11:54:47.537Z,18.12
2022-10-02T11:56:09.556Z,18.14
2022-10-02T11:57:40.229Z,18.28
2022-10-02T11:59:06.871Z,18.61
2022-10-02T12:00:45.410Z,19.03
2022-10-02T12:02:05.431Z,19.26
2022-10-02T12:03:23.096Z,19.50
2022-10-02T12:04:43.746Z,19.87
2022-10-02T12:06:00.337Z,20.27
2022-10-02T12:07:28.923Z,20.39
2022-10-02T12:08:51.362Z,20.26
2022-10-02T12:10:24.341Z,20.01
2022-10-02T12:11:44.229Z,19.85
2022-10-02T12:13:19.621Z,19.55
2022-10-02T12:14:37.053Z,19.19
2022-10-02T12:15:56.645Z,18.95
2022-10-02T12:17:25.073Z,18.69
2022-10-02T12:18:45.105Z,18.47
2022-10-02T12:20:27.231Z,18.25
2022-10-02T12:22:09.192Z,18.26
2022-10-02T12:23:50.732Z,18.25
2022-10-02T12:25:22.339Z,18.29
2022-10-02T12:26:57.753Z,18.18
2022-10-02T12:28:06.807Z,18.16
2022-10-02T12:29:14.128Z,18.41
2022-10-02T12:30:21.725Z,18.61
2022-10-02T12:31:29.630Z,18.73
2022-10-02T12:33:07.713Z,18.93
2022-10-02T12:34:35.651Z,18.91
2022-10-02T12:36:09.577Z,18.77
2022-10-02T12:37:20.377Z,18.53
2022-10-02T12:38:34.885Z,18.36
2022-10-02T12:39:49.418Z,18.35
2022-10-02T12:41:02.468Z,18.36
2022-10-02T12:42:33.277Z,18.40
2022-10-02T12:44:13.939Z,18.44
2022-10-02T12:45:47.894Z,18.36
2022-10-02T12:47:11.480Z,18.29
2022-10-02T12:48:31.998Z,18.32
2022-10-02T12:49:45.879Z,18.43
2022-10-02T12:51:10.649Z,18.51
2022-10-02T12:52:36.113Z,18.49
2022-10-02T12:54:10.949Z,18.56
2022-10-02T12:55:44.756Z,18.81
2022-10-02T12:57:44.037Z,19.19
2022-10-02T12:58:58.241Z,19.79
2022-10-02T13:00:04.546Z,20.12
2022-10-02T13:01:32.803Z,20.33
2022-10-02T13:03:21.868Z,20.22
2022-10-02T13:04:53.147Z,19.91
2022-10-02T13:06:33.106Z,19.55
2022-10-02T13:08:05.569Z,19.15
2022-10-02T13:09:18.348Z,18.86
2022-10-02T13:10:24.630Z,18.67
2022-10-02T13:11:38.489Z,18.52
2022-10-02T13:12:57.393Z,18.37
2022-10-02T13:14:15.942Z,18.20
2022-10-02T13:15:55.479Z,17.91
2022-10-02T13:17:37.553Z,17.69
2022-10-02T13:19:16.487Z,17.54
2022-10-02T13:20:29.306Z,17.36
2022-10-02T13:21:49.693Z,17.27
2022-10-02T13:23:01.738Z,17.17
2022-10-02T13:24:30.197Z,17.09
2022-10-02T13:27:18.987Z,16.84
2022-10-02T13:28:58.666Z,16.73
2022-10-02T13:30:08.154Z,16.61
2022-10-02T13:31:18.536Z,16.52
2022-10-02T13:32:51.758Z,16.37
2022-10-02T13:34:13.581Z,16.14
2022-10-02T13:35:50.438Z,15.73
2022-10-02T13:39:38.344Z,14.39
2022-10-02T13:40:47.931Z,13.86
2022-10-02T13:42:03.260Z,13.46
2022-10-02T13:43:31.928Z,13.08
2022-10-02T13:45:00.569Z,12.86
2022-10-02T13:46:19.379Z,12.64
2022-10-02T13:47:44.375Z,12.56
2022-10-02T13:48:57.394Z,12.53
2022-10-02T13:50:17.478Z,12.69
2022-10-02T13:51:26.824Z,12.92
2022-10-02T13:52:34.356Z,13.07
2022-10-02T13:54:09.454Z,13.27
2022-10-02T13:55:23.075Z,13.46
2022-10-02T13:56:38.442Z,13.49
2022-10-02T13:57:57.242Z,13.58
2022-10-02T13:59:22.062Z,13.64
2022-10-02T14:00:46.935Z,13.62
2022-10-02T14:02:01.907Z,13.60
2022-10-02T14:03:12.251Z,13.60
2022-10-02T14:04:25.102Z,13.65
2022-10-02T14:05:36.850Z,13.70
2022-10-02T14:06:43.457Z,13.74
2022-10-02T14:07:58.701Z,13.79
2022-10-02T14:09:42.289Z,13.88
2022-10-02T14:10:54.543Z,13.96
2022-10-02T14:12:16.600Z,14.06
2022-10-02T14:13:36.273Z,14.15
2022-10-02T14:15:19.823Z,14.24
2022-10-02T14:16:34.544Z,14.33
2022-10-02T14:17:49.267Z,14.49
2022-10-02T14:19:37.197Z,14.66
2022-10-02T14:20:46.078Z,14.79
2022-10-02T14:21:58.375Z,14.87
2022-10-02T14:23:13.326Z,14.98
2022-10-02T14:24:54.773Z,15.06
2022-10-02T14:26:18.241Z,15.13
2022-10-02T14:28:02.806Z,15.21
2022-10-02T14:29:22.641Z,15.21
2022-10-02T14:30:31.628Z,15.24
2022-10-02T14:31:51.121Z,15.27
2022-10-02T14:33:01.309Z,15.29
2022-10-02T14:34:22.033Z,15.30
2022-10-02T14:35:33.471Z,15.30
2022-10-02T14:36:44.343Z,15.28
2022-10-02T14:38:14.654Z,15.24
2022-10-02T14:39:30.468Z,15.20
2022-10-02T14:40:43.174Z,15.19
2022-10-02T14:42:15.879Z,15.19
2022-10-02T14:44:03.781Z,15.07
2022-10-02T14:45:38.491Z,15.00
2022-10-02T14:46:59.784Z,14.97
2022-10-02T14:48:35.792Z,14.92
2022-10-02T14:50:00.469Z,14.81
2022-10-02T14:51:14.562Z,14.76
2022-10-02T14:52:25.699Z,14.72
2022-10-02T14:53:37.042Z,14.62
2022-10-02T14:54:52.280Z,14.48
2022-10-02T14:56:28.052Z,14.31
2022-10-02T14:57:52.123Z,14.18
2022-10-02T14:59:10.163Z,14.04
2022-10-02T15:00:19.325Z,13.92
2022-10-02T15:01:39.592Z,13.79
2022-10-02T15:03:10.604Z,13.73
2022-10-02T15:04:40.077Z,13.66
2022-10-02T15:06:00.627Z,13.59
2022-10-02T15:07:16.224Z,13.55
2022-10-02T15:08:32.256Z,13.50
2022-10-02T15:10:09.839Z,13.44
2022-10-02T15:11:26.007Z,13.39
2022-10-02T15:12:44.960Z,13.38
2022-10-02T15:13:52.188Z,13.39
2022-10-02T15:15:04.361Z,13.41
2022-10-02T15:16:39.222Z,13.42
2022-10-02T15:18:00.566Z,13.43
2022-10-02T15:19:11.647Z,13.40
2022-10-02T15:20:24.129Z,13.37
2022-10-02T15:21:31.450Z,13.31
2022-10-02T15:22:40.310Z,13.26
2022-10-02T15:23:47.024Z,13.22
2022-10-02T15:24:55.810Z,13.16
2022-10-02T15:26:21.038Z,13.13
2022-10-02T15:27:25.389Z,13.10
2022-10-02T15:28:42.012Z,13.04
2022-10-02T15:29:53.661Z,12.98
2022-10-02T15:31:01.142Z,12.93
2022-10-02T15:32:43.718Z,12.83
2022-10-02T15:33:57.171Z,12.69
2022-10-02T15:35:08.334Z,12.60
2022-10-02T15:36:24.766Z,12.48
2022-10-02T15:37:33.392Z,12.39
2022-10-02T15:38:54.226Z,12.31
2022-10-02T15:40:09.355Z,12.21
2022-10-02T15:41:32.313Z,12.11
2022-10-02T15:42:50.047Z,12.05
2022-10-02T15:44:07.051Z,11.99
2022-10-02T15:45:24.282Z,11.94
2022-10-02T15:46:33.855Z,11.89
2022-10-02T15:47:52.810Z,11.86
2022-10-02T15:49:07.001Z,11.80
2022-10-02T15:50:20.995Z,11.76
2022-10-02T15:51:47.502Z,11.73
2022-10-02T15:52:58.073Z,11.66
2022-10-02T15:54:11.930Z,11.65
2022-10-02T15:55:21.495Z,11.62
2022-10-02T15:56:55.388Z,11.61
2022-10-02T15:58:09.233Z,11.58
2022-10-02T15:59:26.350Z,11.53
2022-10-02T16:00:33.639Z,11.49
2022-10-02T16:01:45.482Z,11.48
2022-10-02T16:02:58.298Z,11.48
2022-10-02T16:04:08.172Z,11.48
2022-10-02T16:05:23.248Z,11.49
2022-10-02T16:06:40.991Z,11.52
2022-10-02T16:08:18.889Z,11.55
2022-10-02T16:09:36.556Z,11.56
2022-10-02T16:11:02.973Z,11.58
2022-10-02T16:12:19.647Z,11.62
2022-10-02T16:13:49.319Z,11.63
2022-10-02T16:15:00.382Z,11.61
2022-10-02T16:16:08.671Z,11.60
2022-10-02T16:17:38.187Z,11.61
2022-10-02T16:18:51.019Z,11.59
2022-10-02T16:20:15.292Z,11.61
2022-10-02T16:21:43.502Z,11.61
2022-10-02T16:22:59.220Z,11.58
2022-10-02T16:24:15.973Z,11.58
2022-10-02T16:25:36.811Z,11.58
2022-10-02T16:27:11.022Z,11.58
2022-10-02T16:28:24.884Z,11.56
2022-10-02T16:29:32.829Z,11.56
2022-10-02T16:30:56.412Z,11.56
2022-10-02T16:32:18.615Z,11.54
2022-10-02T16:33:30.012Z,11.54
2022-10-02T16:34:43.449Z,11.54
2022-10-02T16:36:11.002Z,11.57
2022-10-02T16:37:24.139Z,11.58
2022-10-02T16:38:42.888Z,11.58
2022-10-02T16:40:23.095Z,11.56
2022-10-02T16:41:56.427Z,11.55
2022-10-02T16:43:59.515Z,11.48
2022-10-02T16:47:05.796Z,11.40
2022-10-02T16:49:02.420Z,11.40
2022-10-02T16:50:16.953Z,11.39
2022-10-02T16:51:45.487Z,11.42
2022-10-02T16:52:56.052Z,11.41
2022-10-02T16:54:13.685Z,11.40
2022-10-02T16:55:41.434Z,11.39
2022-10-02T16:56:55.090Z,11.38
2022-10-02T17:00:56.958Z,11.35
2022-10-02T17:05:55.829Z,11.31
2022-10-02T17:07:07.158Z,11.26
2022-10-02T17:09:13.178Z,11.26
2022-10-02T17:10:42.055Z,11.19
2022-10-02T17:11:57.979Z,11.16
2022-10-02T17:15:36.659Z,11.08
2022-10-02T17:17:11.740Z,11.07
2022-10-02T17:22:03.121Z,10.96
2022-10-02T17:23:29.139Z,10.98
2022-10-02T17:24:49.199Z,10.98
2022-10-02T17:26:22.120Z,10.97
2022-10-02T17:29:04.898Z,10.88
2022-10-02T17:31:36.433Z,10.75
2022-10-02T17:32:54.621Z,10.68
2022-10-02T17:40:39.469Z,10.54
2022-10-02T17:47:40.048Z,10.48
2022-10-02T17:49:38.216Z,10.43
2022-10-02T18:17:44.596Z,10.00
2022-10-02T18:19:31.194Z,10.05
2022-10-02T18:21:02.387Z,10.07
2022-10-02T18:22:39.605Z,10.11
2022-10-02T18:24:11.849Z,10.15
2022-10-02T18:25:51.245Z,10.18
2022-10-02T18:27:14.691Z,10.18
2022-10-02T18:28:44.215Z,10.22
2022-10-02T18:30:03.882Z,10.28
2022-10-02T18:31:28.825Z,10.32
2022-10-02T18:33:07.042Z,10.37
2022-10-02T18:34:26.836Z,10.37
2022-10-02T18:35:40.587Z,10.39
2022-10-02T18:37:02.008Z,10.39
2022-10-02T18:38:14.302Z,10.38
2022-10-02T18:39:23.671Z,10.40
2022-10-02T18:40:30.622Z,10.41
2022-10-02T18:41:56.730Z,10.43
2022-10-02T18:43:21.552Z,10.42
2022-10-02T18:44:55.847Z,10.43
2022-10-02T18:46:04.973Z,10.42
2022-10-02T18:47:20.469Z,10.43
2022-10-02T18:48:34.960Z,10.44
2022-10-02T18:49:56.079Z,10.44
2022-10-02T18:51:13.264Z,10.43
2022-10-02T18:52:41.994Z,10.44
2022-10-02T18:53:57.130Z,10.41
2022-10-02T18:55:29.691Z,10.42
2022-10-02T18:56:51.729Z,10.43
2022-10-02T18:58:07.738Z,10.43
2022-10-02T18:59:22.465Z,10.43
2022-10-02T19:00:47.720Z,10.45
2022-10-02T19:02:03.610Z,10.43
2022-10-02T19:03:20.223Z,10.46
2022-10-02T19:04:34.715Z,10.44
2022-10-02T19:05:39.918Z,10.45
2022-10-02T19:06:51.677Z,10.46
2022-10-02T19:08:06.670Z,10.46
2022-10-02T19:09:20.559Z,10.46
2022-10-02T19:10:30.150Z,10.45
2022-10-02T19:11:45.921Z,10.46
2022-10-02T19:12:52.753Z,10.43
2022-10-02T19:16:01.676Z,10.38
2022-10-02T19:17:08.847Z,10.36
2022-10-02T19:18:20.762Z,10.34
2022-10-02T19:19:25.563Z,10.33
2022-10-02T19:20:37.847Z,10.32
2022-10-02T19:21:43.005Z,10.30
2022-10-02T19:22:47.379Z,10.29
2022-10-02T19:24:04.905Z,10.27
2022-10-02T19:25:16.361Z,10.23
2022-10-02T19:26:33.719Z,10.18
2022-10-02T19:27:39.353Z,10.14
2022-10-02T19:28:49.483Z,10.09
2022-10-02T19:29:58.279Z,10.06
2022-10-02T19:31:27.337Z,10.01
2022-10-02T19:32:33.313Z,10.00
2022-10-02T19:33:51.510Z,9.95
2022-10-02T19:35:05.144Z,9.95
2022-10-02T19:36:16.519Z,9.91
2022-10-02T19:37:27.332Z,9.90
2022-10-02T19:38:35.008Z,9.89
2022-10-02T19:39:42.165Z,9.89
2022-10-02T19:40:55.502Z,9.90
2022-10-02T19:42:09.527Z,9.90
2022-10-02T19:43:19.483Z,9.91
2022-10-02T19:44:28.552Z,9.93
2022-10-02T19:45:35.863Z,9.96
2022-10-02T19:46:44.134Z,9.97
2022-10-02T19:47:49.210Z,9.97
2022-10-02T19:48:57.013Z,9.98
2022-10-02T19:50:03.240Z,9.98
2022-10-02T19:51:09.790Z,9.97
2022-10-02T19:52:40.062Z,9.98
2022-10-02T19:53:51.117Z,9.96
2022-10-02T19:54:54.848Z,9.91
2022-10-02T19:56:00.846Z,9.90
2022-10-02T19:57:18.749Z,9.89
2022-10-02T19:58:24.439Z,9.87
2022-10-02T19:59:45.087Z,9.87
2022-10-02T20:00:51.795Z,9.83
2022-10-02T20:02:00.764Z,9.81
2022-10-02T20:03:09.922Z,9.79
2022-10-02T20:04:19.470Z,9.78
2022-10-02T20:05:34.901Z,9.78
2022-10-02T20:06:41.233Z,9.77
2022-10-02T20:07:49.064Z,9.74
2022-10-02T20:08:57.014Z,9.74
2022-10-02T20:10:02.645Z,9.72
2022-10-02T20:11:10.985Z,9.70
2022-10-02T20:12:17.184Z,9.69